aviador You're here:

KHSE Decoded Metar

HATTERAS/MITCHEL in NC, USA
Report Time2017-05-23 20:09:00
UTC Time2017-05-23 20:34:51
Flight Rules mvfr MVFR
Wind220° at 12 Gusting to 20 kt
W.Decomp.*RWY 25: 11.3 kt HW 4.1 kt LCW
W.Rank220° ranks 6
Current wind is above 220° avg. (8.5)
Visibility9999 m
Phenomena:N/A
Clouds:Broken 014 Hf
Broken 030 Hf
Expected CloudBase > 800 ft AGL from Temp-Dew spread
Ceiling1,400 ft
Temp24°C (ISA +9)
Dew Point22°C (89% RH)
QNH1007 hPa
Density Alt1,608 ft
Elevation10 ft
Report Wrong Elevation
Raw Report
KHSE 232009Z AUTO 22012G20KT 7SM BKN014 BKN030 24/22 A2975=

Extra information for KHSE:More info

Metar Taf Metar & Taf Last 4 Metars F.Rules Stats Wind Profile Meteogram Temp Stats Airport Information Weather charts Add Link Nearby VenuesMetar ALERT Operation Metar Decoded Social comments

AIRNAV info for KHSE